createdAt,value
2018-02-27T00:00:55.331Z,-2.50
2018-02-27T00:03:24.173Z,-2.50
2018-02-27T00:05:53.007Z,-2.60
2018-02-27T00:08:21.948Z,-2.60
2018-02-27T00:10:50.783Z,-2.60
2018-02-27T00:13:19.619Z,-2.60
2018-02-27T00:15:49.974Z,-2.60
2018-02-27T00:18:19.584Z,-2.50
2018-02-27T00:20:48.558Z,-2.60
2018-02-27T00:23:17.393Z,-2.50
2018-02-27T00:25:46.290Z,-2.50
2018-02-27T00:28:15.114Z,-2.50
2018-02-27T00:30:44.310Z,-2.60
2018-02-27T00:33:14.686Z,-2.70
2018-02-27T00:35:43.506Z,-2.70
2018-02-27T00:38:12.349Z,-2.70
2018-02-27T00:40:41.195Z,-2.80
2018-02-27T00:43:10.063Z,-2.70
2018-02-27T00:45:38.899Z,-2.70
2018-02-27T00:48:07.738Z,-2.70
2018-02-27T00:50:37.342Z,-2.70
2018-02-27T00:53:06.954Z,-2.70
2018-02-27T00:55:36.590Z,-2.70
2018-02-27T00:58:05.436Z,-2.80
2018-02-27T01:00:34.271Z,-2.70
2018-02-27T01:03:03.122Z,-2.70
2018-02-27T01:05:32.755Z,-2.70
2018-02-27T01:08:01.603Z,-2.80
2018-02-27T01:10:30.442Z,-2.60
2018-02-27T01:12:59.310Z,-2.60
2018-02-27T01:15:28.135Z,-2.70
2018-02-27T01:17:56.958Z,-2.70
2018-02-27T01:20:25.815Z,-2.80
2018-02-27T01:22:54.655Z,-2.80
2018-02-27T01:25:24.294Z,-2.70
2018-02-27T01:27:53.143Z,-2.80
2018-02-27T01:30:21.977Z,-2.90
2018-02-27T01:32:51.677Z,-2.90
2018-02-27T01:35:20.540Z,-2.80
2018-02-27T01:37:50.154Z,-2.80
2018-02-27T01:40:19.752Z,-2.70
2018-02-27T01:42:49.379Z,-2.80
2018-02-27T01:45:19.009Z,-2.90
2018-02-27T01:47:48.622Z,-2.90
2018-02-27T01:50:18.182Z,-3.00
2018-02-27T01:52:47.039Z,-3.00
2018-02-27T01:55:15.884Z,-3.00
2018-02-27T01:57:44.717Z,-2.90
2018-02-27T02:00:13.559Z,-2.90
2018-02-27T02:02:43.925Z,-3.00
2018-02-27T02:05:12.764Z,-3.00
2018-02-27T02:07:41.611Z,-3.00
2018-02-27T02:10:10.417Z,-3.00
2018-02-27T02:12:39.337Z,-3.00
2018-02-27T02:15:08.126Z,-2.90
2018-02-27T02:17:36.982Z,-3.00
2018-02-27T02:20:05.834Z,-3.00
2018-02-27T02:22:35.454Z,-3.10
2018-02-27T02:25:04.306Z,-3.10
2018-02-27T02:27:33.153Z,-3.10
2018-02-27T02:30:02.330Z,-3.10
2018-02-27T02:32:31.132Z,-3.20
2018-02-27T02:34:59.984Z,-3.20
2018-02-27T02:37:30.396Z,-3.20
2018-02-27T02:39:59.248Z,-3.30
2018-02-27T02:42:28.132Z,-3.20
2018-02-27T02:44:57.754Z,-3.20
2018-02-27T02:47:26.647Z,-3.30
2018-02-27T02:49:57.811Z,-3.20
2018-02-27T02:52:27.475Z,-3.20
2018-02-27T02:54:56.308Z,-3.30
2018-02-27T02:57:25.944Z,-3.30
2018-02-27T02:59:54.853Z,-3.40
2018-02-27T03:02:23.709Z,-3.30
2018-02-27T03:04:52.544Z,-3.30
2018-02-27T03:07:21.409Z,-3.30
2018-02-27T03:09:50.277Z,-3.30
2018-02-27T03:12:19.147Z,-3.40
2018-02-27T03:14:48.758Z,-3.40
2018-02-27T03:17:18.371Z,-3.40
2018-02-27T03:19:48.006Z,-3.40
2018-02-27T03:22:16.855Z,-3.50
2018-02-27T03:24:45.688Z,-3.50
2018-02-27T03:27:14.561Z,-3.50
2018-02-27T03:29:44.157Z,-3.60
2018-02-27T03:32:13.758Z,-3.60
2018-02-27T03:34:43.362Z,-3.60
2018-02-27T03:37:13.003Z,-3.60
2018-02-27T03:39:41.834Z,-3.70
2018-02-27T03:42:10.897Z,-3.60
2018-02-27T03:44:39.737Z,-3.60
2018-02-27T03:47:09.675Z,-3.60
2018-02-27T03:49:39.285Z,-3.60
2018-02-27T03:52:08.115Z,-3.70
2018-02-27T03:54:36.950Z,-3.70
2018-02-27T03:57:05.802Z,-3.70
2018-02-27T03:59:34.623Z,-3.60
2018-02-27T04:02:04.983Z,-3.60
2018-02-27T04:04:33.838Z,-3.60
2018-02-27T04:07:02.677Z,-3.60
2018-02-27T04:09:31.526Z,-3.50
2018-02-27T04:12:00.357Z,-3.60
2018-02-27T04:14:29.194Z,-3.60
2018-02-27T04:16:58.039Z,-3.60
2018-02-27T04:19:27.653Z,-3.70
2018-02-27T04:21:56.489Z,-3.80
2018-02-27T04:24:25.324Z,-3.80
2018-02-27T04:26:54.182Z,-3.80
2018-02-27T04:29:23.826Z,-3.80
2018-02-27T04:31:53.067Z,-3.90
2018-02-27T04:34:21.901Z,-3.90
2018-02-27T04:36:50.744Z,-3.80
2018-02-27T04:39:19.580Z,-3.80
2018-02-27T04:41:48.418Z,-3.80
2018-02-27T04:44:17.274Z,-3.80
2018-02-27T04:46:46.125Z,-3.90
2018-02-27T04:49:16.466Z,-3.90
2018-02-27T04:51:46.095Z,-3.80
2018-02-27T04:54:14.906Z,-3.90
2018-02-27T04:56:43.750Z,-3.90
2018-02-27T04:59:13.353Z,-3.90
2018-02-27T05:01:42.967Z,-4.00
2018-02-27T05:04:12.343Z,-4.10
2018-02-27T05:06:41.177Z,-4.00
2018-02-27T05:09:10.224Z,-4.00
2018-02-27T05:11:39.069Z,-4.00
2018-02-27T05:14:07.897Z,-4.00
2018-02-27T05:16:38.274Z,-4.20
2018-02-27T05:19:07.121Z,-4.20
2018-02-27T05:21:35.965Z,-4.10
2018-02-27T05:24:04.825Z,-4.10
2018-02-27T05:26:34.428Z,-4.00
2018-02-27T05:29:04.058Z,-4.00
2018-02-27T05:31:32.878Z,-4.10
2018-02-27T05:34:01.718Z,-4.00
2018-02-27T05:36:31.324Z,-4.10
2018-02-27T05:39:00.947Z,-4.10
2018-02-27T05:41:29.794Z,-4.20
2018-02-27T05:43:58.654Z,-4.10
2018-02-27T05:46:27.525Z,-4.10
2018-02-27T05:48:56.374Z,-4.20
2018-02-27T05:51:25.285Z,-4.20
2018-02-27T05:53:54.145Z,-4.30
2018-02-27T05:56:24.668Z,-4.30
2018-02-27T05:58:53.524Z,-4.40
2018-02-27T06:01:22.386Z,-4.30
2018-02-27T06:03:52.017Z,-4.20
2018-02-27T06:06:22.071Z,-4.20
2018-02-27T06:08:50.926Z,-4.10
2018-02-27T06:11:19.795Z,-4.10
2018-02-27T06:13:48.621Z,-4.20
2018-02-27T06:16:17.478Z,-4.30
2018-02-27T06:18:46.306Z,-4.40
2018-02-27T06:21:16.671Z,-4.50
2018-02-27T06:23:46.406Z,-4.50
2018-02-27T06:26:15.241Z,-4.40
2018-02-27T06:28:44.855Z,-4.30
2018-02-27T06:31:14.496Z,-4.30
2018-02-27T06:33:43.315Z,-4.40
2018-02-27T06:36:12.183Z,-4.30
2018-02-27T06:38:41.019Z,-4.30
2018-02-27T06:41:09.875Z,-4.30
2018-02-27T06:43:38.704Z,-4.30
2018-02-27T06:46:08.354Z,-4.20
2018-02-27T06:48:37.211Z,-4.30
2018-02-27T06:51:06.055Z,-4.10
2018-02-27T06:53:35.681Z,-4.10
2018-02-27T06:56:05.306Z,-4.10
2018-02-27T06:58:34.158Z,-4.10
2018-02-27T07:01:02.989Z,-4.10
2018-02-27T07:03:31.871Z,-4.10
2018-02-27T07:06:01.244Z,-4.10
2018-02-27T07:08:30.886Z,-4.10
2018-02-27T07:10:59.775Z,-4.10
2018-02-27T07:13:28.675Z,-4.00
2018-02-27T07:15:57.502Z,-4.00
2018-02-27T07:18:27.164Z,-3.90
2018-02-27T07:20:56.331Z,-4.00
2018-02-27T07:23:25.962Z,-3.70
2018-02-27T07:25:54.802Z,-3.80
2018-02-27T07:28:24.134Z,-3.70
2018-02-27T07:30:54.248Z,-3.60
2018-02-27T07:33:23.116Z,-3.70
2018-02-27T07:35:51.955Z,-3.60
2018-02-27T07:38:20.798Z,-3.60
2018-02-27T07:40:49.648Z,-3.50
2018-02-27T07:43:19.341Z,-3.50
2018-02-27T07:45:48.193Z,-3.50
2018-02-27T07:48:18.762Z,-3.40
2018-02-27T07:50:50.141Z,-3.40
2018-02-27T07:53:19.787Z,-3.20
2018-02-27T07:55:48.665Z,-3.20
2018-02-27T07:58:17.486Z,-3.10
2018-02-27T08:00:46.399Z,-2.90
2018-02-27T08:03:15.158Z,-2.70
2018-02-27T08:05:44.058Z,-2.60
2018-02-27T08:08:12.891Z,-2.50
2018-02-27T08:10:42.085Z,-2.40
2018-02-27T08:13:10.940Z,-2.50
2018-02-27T08:15:39.785Z,-2.50
2018-02-27T08:18:09.399Z,-2.40
2018-02-27T08:20:39.044Z,-2.30
2018-02-27T08:23:07.886Z,-2.40
2018-02-27T08:25:37.488Z,-2.10
2018-02-27T08:28:06.331Z,-2.20
2018-02-27T08:30:35.923Z,-2.20
2018-02-27T08:33:04.821Z,-2.20
2018-02-27T08:35:33.661Z,-2.10
2018-02-27T08:38:02.502Z,-2.00
2018-02-27T08:40:31.358Z,-1.90
2018-02-27T08:43:00.957Z,-1.80
2018-02-27T08:45:31.158Z,-1.80
2018-02-27T08:48:01.584Z,-1.80
2018-02-27T08:50:30.374Z,-1.80
2018-02-27T08:52:59.224Z,-1.80
2018-02-27T08:55:28.069Z,-1.70
2018-02-27T08:57:56.936Z,-1.60
2018-02-27T09:00:27.738Z,-1.50
2018-02-27T09:02:56.602Z,-1.50
2018-02-27T09:05:26.202Z,-1.40
2018-02-27T09:07:55.831Z,-1.30
2018-02-27T09:10:24.650Z,-1.30
2018-02-27T09:12:53.512Z,-1.10
2018-02-27T09:15:23.091Z,-0.80
2018-02-27T09:17:52.696Z,-0.60
2018-02-27T09:20:22.380Z,-0.50
2018-02-27T09:22:51.146Z,-0.50
2018-02-27T09:25:20.007Z,-0.30
2018-02-27T09:27:48.858Z,0.00
2018-02-27T09:30:18.586Z,0.40
2018-02-27T09:32:48.178Z,0.30
2018-02-27T09:35:17.015Z,0.20
2018-02-27T09:37:45.857Z,0.40
2018-02-27T09:40:15.556Z,0.60
2018-02-27T09:42:44.390Z,0.90
2018-02-27T09:45:13.263Z,1.20
2018-02-27T09:47:42.840Z,1.60
2018-02-27T09:50:11.678Z,1.50
2018-02-27T09:52:40.515Z,1.70
2018-02-27T09:55:09.355Z,1.60
2018-02-27T09:57:38.186Z,2.20
2018-02-27T10:00:07.022Z,3.30
2018-02-27T10:02:35.862Z,4.70
2018-02-27T10:05:05.458Z,7.10
2018-02-27T10:07:34.293Z,7.00
2018-02-27T10:10:03.959Z,8.30
2018-02-27T10:12:32.758Z,8.20
2018-02-27T10:15:01.606Z,8.80
2018-02-27T10:17:30.428Z,9.20
2018-02-27T10:19:59.264Z,9.40
2018-02-27T10:22:28.100Z,9.50
2018-02-27T10:24:56.951Z,10.10
2018-02-27T10:27:25.807Z,10.60
2018-02-27T10:29:55.438Z,10.90
2018-02-27T10:32:24.289Z,10.90
2018-02-27T10:34:53.114Z,10.90
2018-02-27T10:37:21.967Z,10.60
2018-02-27T10:39:50.818Z,10.40
2018-02-27T10:42:19.655Z,10.80
2018-02-27T10:44:49.278Z,10.90
2018-02-27T10:47:18.113Z,10.80
2018-02-27T10:49:46.969Z,10.90
2018-02-27T10:52:15.814Z,11.00
2018-02-27T10:54:44.660Z,11.10
2018-02-27T10:57:13.498Z,10.90
2018-02-27T10:59:43.305Z,11.20
2018-02-27T11:02:12.176Z,11.80
2018-02-27T11:04:41.037Z,11.70
2018-02-27T11:07:09.856Z,11.70
2018-02-27T11:09:38.717Z,11.70
2018-02-27T11:12:07.537Z,11.30
2018-02-27T11:14:36.506Z,11.30
2018-02-27T11:17:06.130Z,11.10
2018-02-27T11:19:35.386Z,11.10
2018-02-27T11:22:05.247Z,11.70
2018-02-27T11:24:34.116Z,11.60
2018-02-27T11:27:02.955Z,11.50
2018-02-27T11:29:31.792Z,11.30
2018-02-27T11:32:02.358Z,11.40
2018-02-27T11:34:31.182Z,11.30
2018-02-27T11:37:00.046Z,10.10
2018-02-27T11:39:29.604Z,10.30
2018-02-27T11:41:59.215Z,11.20
2018-02-27T11:44:28.846Z,11.30
2018-02-27T11:46:57.734Z,11.30
2018-02-27T11:49:26.584Z,10.10
2018-02-27T11:51:55.413Z,10.00
2018-02-27T11:54:24.245Z,10.50
2018-02-27T11:56:53.082Z,10.80
2018-02-27T11:59:21.921Z,11.30
2018-02-27T12:01:50.792Z,11.40
2018-02-27T12:04:19.655Z,10.90
2018-02-27T12:06:48.796Z,9.70
2018-02-27T12:09:17.644Z,8.10
2018-02-27T12:11:46.457Z,6.80
2018-02-27T12:14:15.298Z,7.40
2018-02-27T12:16:44.878Z,9.30
2018-02-27T12:19:13.726Z,9.30
2018-02-27T12:21:42.603Z,9.00
2018-02-27T12:24:11.426Z,7.50
2018-02-27T12:26:40.292Z,6.50
2018-02-27T12:29:09.125Z,6.30
2018-02-27T12:31:37.969Z,7.00
2018-02-27T12:34:06.793Z,7.80
2018-02-27T12:36:35.746Z,7.10
2018-02-27T12:39:04.643Z,6.10
2018-02-27T12:41:33.500Z,5.20
2018-02-27T12:44:03.090Z,4.10
2018-02-27T12:46:31.918Z,4.00
2018-02-27T12:49:00.737Z,3.80
2018-02-27T12:51:29.589Z,3.40
2018-02-27T12:53:58.401Z,3.10
2018-02-27T12:56:28.072Z,3.00
2018-02-27T12:58:56.934Z,2.90
2018-02-27T13:01:26.511Z,3.20
2018-02-27T13:03:56.099Z,3.60
2018-02-27T13:06:24.932Z,3.50
2018-02-27T13:08:53.780Z,3.70
2018-02-27T13:11:24.134Z,3.40
2018-02-27T13:13:53.725Z,3.10
2018-02-27T13:16:23.341Z,2.50
2018-02-27T13:18:52.961Z,2.40
2018-02-27T13:21:22.550Z,2.30
2018-02-27T13:23:52.155Z,2.30
2018-02-27T13:26:21.752Z,2.30
2018-02-27T13:28:50.583Z,2.20
2018-02-27T13:31:19.418Z,2.20
2018-02-27T13:33:48.263Z,2.20
2018-02-27T13:36:17.197Z,2.10
2018-02-27T13:38:46.047Z,2.00
2018-02-27T13:41:15.625Z,1.70
2018-02-27T13:43:45.225Z,1.60
2018-02-27T13:46:14.089Z,1.50
2018-02-27T13:48:45.912Z,1.50
2018-02-27T13:51:11.986Z,1.50
2018-02-27T13:53:40.840Z,1.50
2018-02-27T13:56:10.434Z,2.00
2018-02-27T13:58:40.047Z,2.00
2018-02-27T14:01:09.664Z,2.00
2018-02-27T14:03:39.289Z,1.90
2018-02-27T14:06:08.891Z,1.80
2018-02-27T14:08:37.729Z,1.70
2018-02-27T14:11:06.558Z,1.70
2018-02-27T14:13:36.157Z,1.80
2018-02-27T14:16:05.798Z,1.90
2018-02-27T14:18:34.617Z,1.80
2018-02-27T14:21:03.460Z,2.00
2018-02-27T14:23:32.293Z,2.10
2018-02-27T14:26:01.239Z,2.30
2018-02-27T14:28:30.831Z,2.60
2018-02-27T14:30:59.708Z,2.60
2018-02-27T14:33:28.550Z,2.60
2018-02-27T14:35:57.405Z,2.60
2018-02-27T14:38:27.079Z,2.50
2018-02-27T14:40:55.912Z,2.30
2018-02-27T14:43:24.759Z,2.10
2018-02-27T14:45:53.698Z,2.10
2018-02-27T14:50:57.694Z,1.90
2018-02-27T14:53:27.310Z,1.80
2018-02-27T14:55:56.990Z,1.70
2018-02-27T14:58:25.785Z,1.60
2018-02-27T15:00:54.590Z,1.70
2018-02-27T15:03:24.188Z,1.50
2018-02-27T15:05:53.822Z,1.40
2018-02-27T15:08:23.438Z,1.40
2018-02-27T15:10:52.511Z,1.30
2018-02-27T15:13:21.936Z,1.50
2018-02-27T15:15:50.752Z,1.60
2018-02-27T15:18:19.590Z,1.60
2018-02-27T15:20:49.174Z,1.50
2018-02-27T15:23:18.074Z,1.50
2018-02-27T15:25:46.878Z,1.50
2018-02-27T15:28:16.416Z,1.30
2018-02-27T15:40:31.027Z,0.80
2018-02-27T15:42:59.877Z,0.80
2018-02-27T15:45:28.730Z,0.90
2018-02-27T15:47:57.546Z,1.00
2018-02-27T15:50:26.396Z,1.10
2018-02-27T15:52:55.237Z,1.10
2018-02-27T15:55:24.082Z,1.20
2018-02-27T15:57:53.032Z,1.20
2018-02-27T16:00:21.876Z,1.20
2018-02-27T16:02:52.185Z,1.10
2018-02-27T16:05:21.264Z,1.10
2018-02-27T16:07:50.148Z,1.10
2018-02-27T16:10:19.715Z,0.90
2018-02-27T16:12:49.339Z,0.90
2018-02-27T16:15:18.515Z,0.80
2018-02-27T16:17:48.186Z,0.80
2018-02-27T16:20:16.999Z,0.70
2018-02-27T16:22:46.556Z,0.60
2018-02-27T16:25:15.388Z,0.50
2018-02-27T16:27:44.306Z,0.50
2018-02-27T16:30:13.882Z,0.30
2018-02-27T16:32:43.078Z,0.30
2018-02-27T16:35:12.738Z,0.20
2018-02-27T16:37:41.585Z,0.20
2018-02-27T16:40:10.443Z,0.20
2018-02-27T16:42:39.267Z,0.20
2018-02-27T16:45:08.896Z,0.30
2018-02-27T16:47:38.514Z,0.30
2018-02-27T16:50:07.363Z,0.20
2018-02-27T16:52:36.186Z,0.20
2018-02-27T16:55:05.044Z,0.10
2018-02-27T16:57:33.892Z,0.10
2018-02-27T17:00:02.739Z,0.10
2018-02-27T17:02:32.759Z,0.10
2018-02-27T17:05:02.389Z,0.00
2018-02-27T17:07:31.234Z,0.00
2018-02-27T17:10:01.162Z,0.00
2018-02-27T17:12:30.758Z,0.00
2018-02-27T17:14:59.606Z,-0.10
2018-02-27T17:17:28.447Z,-0.10
2018-02-27T17:19:58.085Z,-0.10
2018-02-27T17:22:27.695Z,-0.20
2018-02-27T17:24:56.546Z,-0.20
2018-02-27T17:27:25.394Z,-0.20
2018-02-27T17:29:54.331Z,-0.20
2018-02-27T17:32:23.271Z,-0.20
2018-02-27T17:34:52.093Z,-0.30
2018-02-27T17:37:20.975Z,-0.20
2018-02-27T17:39:49.844Z,-0.20
2018-02-27T17:42:18.707Z,-0.30
2018-02-27T17:44:47.543Z,-0.30
2018-02-27T17:47:16.381Z,-0.30
2018-02-27T17:49:45.999Z,-0.30
2018-02-27T17:52:15.274Z,-0.40
2018-02-27T17:54:44.883Z,-0.30
2018-02-27T17:57:14.533Z,-0.30
2018-02-27T17:59:43.374Z,-0.30
2018-02-27T18:02:12.225Z,-0.20
2018-02-27T18:04:41.080Z,-0.20
2018-02-27T18:07:09.918Z,-0.20
2018-02-27T18:09:39.557Z,-0.20
2018-02-27T18:12:08.424Z,-0.20
2018-02-27T18:14:38.049Z,-0.30
2018-02-27T18:17:06.925Z,-0.30
2018-02-27T18:19:36.025Z,-0.30
2018-02-27T18:22:05.650Z,-0.20
2018-02-27T18:24:34.536Z,-0.30
2018-02-27T18:27:03.399Z,-0.20
2018-02-27T18:29:33.039Z,-0.30
2018-02-27T18:32:01.899Z,-0.40
2018-02-27T18:34:31.516Z,-0.30
2018-02-27T18:37:00.376Z,-0.40
2018-02-27T18:39:29.225Z,-0.30
2018-02-27T18:41:58.061Z,-0.50
2018-02-27T18:44:28.120Z,-0.50
2018-02-27T18:46:57.016Z,-0.60
2018-02-27T18:49:25.942Z,-0.50
2018-02-27T18:51:54.761Z,-0.60
2018-02-27T18:54:24.379Z,-0.60
2018-02-27T18:56:54.004Z,-0.60
2018-02-27T18:59:23.631Z,-0.70
2018-02-27T19:01:53.286Z,-0.60
2018-02-27T19:04:22.186Z,-0.70
2018-02-27T19:06:51.041Z,-0.70
2018-02-27T19:09:19.937Z,-0.70
2018-02-27T19:11:48.823Z,-0.70
2018-02-27T19:14:18.444Z,-0.60
2018-02-27T19:16:47.324Z,-0.60
2018-02-27T19:19:16.204Z,-0.60
2018-02-27T19:21:45.080Z,-0.70
2018-02-27T19:24:14.716Z,-0.70
2018-02-27T19:26:43.613Z,-0.70
2018-02-27T19:29:12.467Z,-0.60
2018-02-27T19:31:42.103Z,-0.60
2018-02-27T19:34:10.978Z,-0.60
2018-02-27T19:36:39.840Z,-0.70
2018-02-27T19:39:09.481Z,-0.70
2018-02-27T19:41:38.335Z,-0.80
2018-02-27T19:44:07.986Z,-0.80
2018-02-27T19:46:36.843Z,-0.80
2018-02-27T19:49:06.470Z,-0.80
2018-02-27T19:51:35.323Z,-0.90
2018-02-27T19:54:04.485Z,-0.80
2018-02-27T19:56:33.318Z,-0.90
2018-02-27T19:59:02.937Z,-0.90
2018-02-27T20:01:32.253Z,-1.00
2018-02-27T20:04:01.874Z,-1.00
2018-02-27T20:06:30.768Z,-1.00
2018-02-27T20:08:59.665Z,-1.00
2018-02-27T20:11:28.554Z,-1.10
2018-02-27T20:13:57.419Z,-1.00
2018-02-27T20:16:26.296Z,-1.00
2018-02-27T20:18:55.934Z,-0.90
2018-02-27T20:21:24.783Z,-1.00
2018-02-27T20:23:59.448Z,-0.90
2018-02-27T20:26:28.336Z,-0.90
2018-02-27T20:29:02.803Z,-1.00
2018-02-27T20:31:31.684Z,-1.00
2018-02-27T20:34:00.536Z,-1.00
2018-02-27T20:36:29.406Z,-1.00
2018-02-27T20:39:04.729Z,-1.10
2018-02-27T20:41:33.586Z,-1.20
2018-02-27T20:44:02.452Z,-1.20
2018-02-27T20:46:31.314Z,-1.20
2018-02-27T20:49:00.270Z,-1.20
2018-02-27T20:51:29.122Z,-1.10
2018-02-27T20:53:57.988Z,-1.10
2018-02-27T20:56:26.908Z,-1.10
2018-02-27T20:58:55.755Z,-1.10
2018-02-27T21:01:24.730Z,-1.10
2018-02-27T21:03:53.616Z,-1.10
2018-02-27T21:06:22.454Z,-1.10
2018-02-27T21:08:52.098Z,-1.10
2018-02-27T21:11:20.974Z,-1.10
2018-02-27T21:13:54.802Z,-1.10
2018-02-27T21:16:23.675Z,-1.10
2018-02-27T21:18:52.566Z,-1.10
2018-02-27T21:21:21.450Z,-1.30
2018-02-27T21:23:50.319Z,-1.30
2018-02-27T21:26:19.926Z,-1.30
2018-02-27T21:28:49.555Z,-1.20
2018-02-27T21:31:18.403Z,-1.30
2018-02-27T21:33:48.063Z,-1.10
2018-02-27T21:36:16.944Z,-1.20
2018-02-27T21:38:45.837Z,-1.10
2018-02-27T21:41:20.399Z,-1.00
2018-02-27T21:43:49.245Z,-1.10
2018-02-27T21:46:18.137Z,-1.00
2018-02-27T21:48:46.950Z,-1.10
2018-02-27T21:51:16.476Z,-1.10
2018-02-27T21:53:45.323Z,-1.20
2018-02-27T21:56:14.193Z,-1.20
2018-02-27T21:58:43.826Z,-1.20
2018-02-27T22:01:12.699Z,-1.30
2018-02-27T22:03:41.556Z,-1.20
2018-02-27T22:06:10.432Z,-1.10
2018-02-27T22:08:39.319Z,-1.00
2018-02-27T22:11:08.263Z,-1.00
2018-02-27T22:13:37.077Z,-1.00
2018-02-27T22:16:06.176Z,-1.00
2018-02-27T22:18:35.159Z,-1.10
2018-02-27T22:21:04.791Z,-1.00
2018-02-27T22:23:33.650Z,-1.00
2018-02-27T22:26:03.293Z,-1.20
2018-02-27T22:28:32.156Z,-1.30
2018-02-27T22:31:01.784Z,-1.20
2018-02-27T22:33:30.626Z,-1.20
2018-02-27T22:35:59.481Z,-1.10
2018-02-27T22:38:28.340Z,-1.00
2018-02-27T22:40:57.203Z,-1.00
2018-02-27T22:43:26.062Z,-1.10
2018-02-27T22:45:54.978Z,-1.10
2018-02-27T22:48:23.836Z,-1.10
2018-02-27T22:50:52.696Z,-1.10
2018-02-27T22:53:21.578Z,-1.00
2018-02-27T22:55:51.190Z,-1.10
2018-02-27T22:58:20.167Z,-1.20
2018-02-27T23:00:50.750Z,-1.10
2018-02-27T23:03:19.607Z,-1.20
2018-02-27T23:05:48.467Z,-1.20
2018-02-27T23:08:18.517Z,-1.20
2018-02-27T23:10:47.358Z,-1.20
2018-02-27T23:13:16.999Z,-1.40
2018-02-27T23:15:46.511Z,-1.40
2018-02-27T23:18:15.696Z,-1.40
2018-02-27T23:20:44.544Z,-1.40
2018-02-27T23:23:13.399Z,-1.50
2018-02-27T23:25:52.972Z,-1.50
2018-02-27T23:28:24.904Z,-1.50
2018-02-27T23:30:55.083Z,-1.50
2018-02-27T23:33:26.294Z,-1.60
2018-02-27T23:35:55.153Z,-1.60
2018-02-27T23:38:24.014Z,-1.70
2018-02-27T23:40:52.884Z,-1.80
2018-02-27T23:43:22.491Z,-1.80
2018-02-27T23:45:52.138Z,-2.00
2018-02-27T23:48:21.024Z,-2.10
2018-02-27T23:50:49.870Z,-2.10
2018-02-27T23:53:19.492Z,-2.20
2018-02-27T23:55:49.118Z,-2.40
2018-02-27T23:58:17.962Z,-2.50
